sensor_id;sensor_type;location;lat;lon;timestamp;P1;durP1;ratioP1;P2;durP2;ratioP2
56581;SDS011;42463;52.214;21.238;2022-12-07T00:01:08;25.80;;;14.10;;
56581;SDS011;42463;52.214;21.238;2022-12-07T00:03:36;31.40;;;17.10;;
56581;SDS011;42463;52.214;21.238;2022-12-07T00:06:02;29.20;;;14.60;;
56581;SDS011;42463;52.214;21.238;2022-12-07T00:08:28;29.00;;;15.60;;
56581;SDS011;42463;52.214;21.238;2022-12-07T00:10:55;31.70;;;16.90;;
56581;SDS011;42463;52.214;21.238;2022-12-07T00:13:23;29.80;;;16.10;;
56581;SDS011;42463;52.214;21.238;2022-12-07T00:15:49;27.50;;;15.70;;
56581;SDS011;42463;52.214;21.238;2022-12-07T00:18:14;33.90;;;16.50;;
56581;SDS011;42463;52.214;21.238;2022-12-07T00:20:39;30.40;;;14.50;;
56581;SDS011;42463;52.214;21.238;2022-12-07T00:23:05;28.30;;;15.40;;
56581;SDS011;42463;52.214;21.238;2022-12-07T00:25:30;30.80;;;17.00;;
56581;SDS011;42463;52.214;21.238;2022-12-07T00:27:55;27.90;;;16.50;;
56581;SDS011;42463;52.214;21.238;2022-12-07T00:30:21;31.10;;;17.90;;
56581;SDS011;42463;52.214;21.238;2022-12-07T00:32:47;25.60;;;14.50;;
56581;SDS011;42463;52.214;21.238;2022-12-07T00:35:12;25.70;;;14.50;;
56581;SDS011;42463;52.214;21.238;2022-12-07T00:37:38;27.40;;;15.20;;
56581;SDS011;42463;52.214;21.238;2022-12-07T00:40:03;30.30;;;16.10;;
56581;SDS011;42463;52.214;21.238;2022-12-07T00:42:30;27.50;;;15.40;;
56581;SDS011;42463;52.214;21.238;2022-12-07T00:44:55;29.10;;;15.60;;
56581;SDS011;42463;52.214;21.238;2022-12-07T00:47:21;27.10;;;14.90;;
56581;SDS011;42463;52.214;21.238;2022-12-07T00:49:51;29.10;;;16.20;;
56581;SDS011;42463;52.214;21.238;2022-12-07T00:52:16;26.80;;;15.30;;
56581;SDS011;42463;52.214;21.238;2022-12-07T00:54:40;25.20;;;15.20;;
56581;SDS011;42463;52.214;21.238;2022-12-07T00:57:06;24.20;;;13.20;;
56581;SDS011;42463;52.214;21.238;2022-12-07T00:59:31;30.10;;;15.60;;
56581;SDS011;42463;52.214;21.238;2022-12-07T01:01:56;28.10;;;16.40;;
56581;SDS011;42463;52.214;21.238;2022-12-07T01:04:21;30.10;;;15.70;;
56581;SDS011;42463;52.214;21.238;2022-12-07T01:06:46;26.10;;;15.10;;
56581;SDS011;42463;52.214;21.238;2022-12-07T01:09:12;19.90;;;11.70;;
56581;SDS011;42463;52.214;21.238;2022-12-07T01:11:37;30.40;;;15.90;;
56581;SDS011;42463;52.214;21.238;2022-12-07T01:14:03;28.40;;;16.20;;
56581;SDS011;42463;52.214;21.238;2022-12-07T01:16:29;27.60;;;14.80;;
56581;SDS011;42463;52.214;21.238;2022-12-07T01:18:55;24.30;;;14.80;;
56581;SDS011;42463;52.214;21.238;2022-12-07T01:21:22;28.40;;;15.20;;
56581;SDS011;42463;52.214;21.238;2022-12-07T01:23:48;23.10;;;13.70;;
56581;SDS011;42463;52.214;21.238;2022-12-07T01:26:14;25.00;;;14.00;;
56581;SDS011;42463;52.214;21.238;2022-12-07T01:28:41;26.90;;;15.60;;
56581;SDS011;42463;52.214;21.238;2022-12-07T01:31:07;23.90;;;14.10;;
56581;SDS011;42463;52.214;21.238;2022-12-07T01:33:35;25.50;;;14.80;;
56581;SDS011;42463;52.214;21.238;2022-12-07T01:36:04;24.90;;;14.50;;
56581;SDS011;42463;52.214;21.238;2022-12-07T01:38:31;31.00;;;16.90;;
56581;SDS011;42463;52.214;21.238;2022-12-07T01:40:56;31.50;;;15.80;;
56581;SDS011;42463;52.214;21.238;2022-12-07T01:43:22;25.80;;;15.70;;
56581;SDS011;42463;52.214;21.238;2022-12-07T01:45:49;27.50;;;15.70;;
56581;SDS011;42463;52.214;21.238;2022-12-07T01:48:14;26.30;;;15.40;;
56581;SDS011;42463;52.214;21.238;2022-12-07T01:50:43;26.70;;;15.20;;
56581;SDS011;42463;52.214;21.238;2022-12-07T01:53:11;22.20;;;12.60;;
56581;SDS011;42463;52.214;21.238;2022-12-07T01:55:38;26.20;;;15.00;;
56581;SDS011;42463;52.214;21.238;2022-12-07T01:58:07;27.30;;;14.80;;
56581;SDS011;42463;52.214;21.238;2022-12-07T02:04:10;25.50;;;15.30;;
56581;SDS011;42463;52.214;21.238;2022-12-07T02:06:36;27.20;;;15.50;;
56581;SDS011;42463;52.214;21.238;2022-12-07T02:09:02;28.30;;;16.60;;
56581;SDS011;42463;52.214;21.238;2022-12-07T02:11:30;26.00;;;15.60;;
56581;SDS011;42463;52.214;21.238;2022-12-07T02:13:55;26.60;;;15.00;;
56581;SDS011;42463;52.214;21.238;2022-12-07T02:16:25;32.70;;;17.80;;
56581;SDS011;42463;52.214;21.238;2022-12-07T02:18:58;31.50;;;17.90;;
56581;SDS011;42463;52.214;21.238;2022-12-07T02:21:35;29.80;;;15.90;;
56581;SDS011;42463;52.214;21.238;2022-12-07T02:24:16;27.50;;;15.80;;
56581;SDS011;42463;52.214;21.238;2022-12-07T02:29:44;27.00;;;15.70;;
56581;SDS011;42463;52.214;21.238;2022-12-07T02:32:14;31.30;;;17.10;;
56581;SDS011;42463;52.214;21.238;2022-12-07T02:34:48;27.20;;;15.90;;
56581;SDS011;42463;52.214;21.238;2022-12-07T02:37:24;29.40;;;16.80;;
56581;SDS011;42463;52.214;21.238;2022-12-07T02:39:57;29.20;;;16.70;;
56581;SDS011;42463;52.214;21.238;2022-12-07T02:42:28;25.80;;;15.30;;
56581;SDS011;42463;52.214;21.238;2022-12-07T02:45:00;23.30;;;13.20;;
56581;SDS011;42463;52.214;21.238;2022-12-07T02:47:27;26.20;;;14.40;;
56581;SDS011;42463;52.214;21.238;2022-12-07T02:49:56;27.00;;;15.90;;
56581;SDS011;42463;52.214;21.238;2022-12-07T02:52:20;27.90;;;16.10;;
56581;SDS011;42463;52.214;21.238;2022-12-07T02:54:45;22.10;;;13.40;;
56581;SDS011;42463;52.214;21.238;2022-12-07T02:57:15;19.40;;;12.00;;
56581;SDS011;42463;52.214;21.238;2022-12-07T02:59:57;20.70;;;11.80;;
56581;SDS011;42463;52.214;21.238;2022-12-07T03:02:34;21.10;;;12.70;;
56581;SDS011;42463;52.214;21.238;2022-12-07T03:05:08;20.50;;;14.60;;
56581;SDS011;42463;52.214;21.238;2022-12-07T03:07:45;23.10;;;13.70;;
56581;SDS011;42463;52.214;21.238;2022-12-07T03:10:24;22.10;;;13.70;;
56581;SDS011;42463;52.214;21.238;2022-12-07T03:13:01;21.90;;;13.60;;
56581;SDS011;42463;52.214;21.238;2022-12-07T03:15:31;19.20;;;12.30;;
56581;SDS011;42463;52.214;21.238;2022-12-07T03:17:59;20.00;;;11.80;;
56581;SDS011;42463;52.214;21.238;2022-12-07T03:20:27;16.30;;;10.10;;
56581;SDS011;42463;52.214;21.238;2022-12-07T03:22:55;16.20;;;10.30;;
56581;SDS011;42463;52.214;21.238;2022-12-07T03:25:22;15.40;;;9.90;;
56581;SDS011;42463;52.214;21.238;2022-12-07T03:27:49;15.80;;;9.20;;
56581;SDS011;42463;52.214;21.238;2022-12-07T03:30:18;14.90;;;8.80;;
56581;SDS011;42463;52.214;21.238;2022-12-07T03:32:46;14.60;;;9.40;;
56581;SDS011;42463;52.214;21.238;2022-12-07T03:35:16;14.30;;;8.80;;
56581;SDS011;42463;52.214;21.238;2022-12-07T03:37:47;12.30;;;8.00;;
56581;SDS011;42463;52.214;21.238;2022-12-07T03:40:19;15.00;;;8.20;;
56581;SDS011;42463;52.214;21.238;2022-12-07T03:42:51;13.30;;;8.10;;
56581;SDS011;42463;52.214;21.238;2022-12-07T03:45:18;13.50;;;7.70;;
56581;SDS011;42463;52.214;21.238;2022-12-07T03:47:46;13.00;;;8.60;;
56581;SDS011;42463;52.214;21.238;2022-12-07T03:50:18;14.50;;;8.30;;
56581;SDS011;42463;52.214;21.238;2022-12-07T03:52:52;14.40;;;7.90;;
56581;SDS011;42463;52.214;21.238;2022-12-07T03:55:20;10.60;;;6.90;;
56581;SDS011;42463;52.214;21.238;2022-12-07T03:57:51;11.50;;;7.20;;
56581;SDS011;42463;52.214;21.238;2022-12-07T04:00:19;12.50;;;7.50;;
56581;SDS011;42463;52.214;21.238;2022-12-07T04:02:44;11.70;;;7.10;;
56581;SDS011;42463;52.214;21.238;2022-12-07T04:05:10;12.50;;;7.40;;
56581;SDS011;42463;52.214;21.238;2022-12-07T04:07:35;12.50;;;6.90;;
56581;SDS011;42463;52.214;21.238;2022-12-07T04:10:00;12.40;;;7.50;;
56581;SDS011;42463;52.214;21.238;2022-12-07T04:12:25;10.30;;;7.00;;
56581;SDS011;42463;52.214;21.238;2022-12-07T04:14:50;11.00;;;6.50;;
56581;SDS011;42463;52.214;21.238;2022-12-07T04:17:15;11.30;;;5.80;;
56581;SDS011;42463;52.214;21.238;2022-12-07T04:19:41;10.40;;;5.80;;
56581;SDS011;42463;52.214;21.238;2022-12-07T04:22:07;9.60;;;5.90;;
56581;SDS011;42463;52.214;21.238;2022-12-07T04:24:33;9.80;;;5.70;;
56581;SDS011;42463;52.214;21.238;2022-12-07T04:26:58;6.60;;;4.50;;
56581;SDS011;42463;52.214;21.238;2022-12-07T04:29:23;9.50;;;4.90;;
56581;SDS011;42463;52.214;21.238;2022-12-07T04:31:48;8.30;;;4.70;;
56581;SDS011;42463;52.214;21.238;2022-12-07T04:34:14;7.00;;;4.30;;
56581;SDS011;42463;52.214;21.238;2022-12-07T04:36:39;7.50;;;4.70;;
56581;SDS011;42463;52.214;21.238;2022-12-07T04:39:06;5.40;;;4.70;;
56581;SDS011;42463;52.214;21.238;2022-12-07T04:41:36;5.80;;;3.90;;
56581;SDS011;42463;52.214;21.238;2022-12-07T04:44:02;7.20;;;4.40;;
56581;SDS011;42463;52.214;21.238;2022-12-07T04:46:29;5.20;;;3.70;;
56581;SDS011;42463;52.214;21.238;2022-12-07T04:48:58;8.20;;;4.40;;
56581;SDS011;42463;52.214;21.238;2022-12-07T04:51:24;5.40;;;3.60;;
56581;SDS011;42463;52.214;21.238;2022-12-07T04:53:50;5.30;;;3.70;;
56581;SDS011;42463;52.214;21.238;2022-12-07T04:56:16;6.70;;;4.20;;
56581;SDS011;42463;52.214;21.238;2022-12-07T04:58:42;8.20;;;4.20;;
56581;SDS011;42463;52.214;21.238;2022-12-07T05:01:09;5.20;;;3.60;;
56581;SDS011;42463;52.214;21.238;2022-12-07T05:03:34;5.20;;;3.50;;
56581;SDS011;42463;52.214;21.238;2022-12-07T05:06:00;6.30;;;4.10;;
56581;SDS011;42463;52.214;21.238;2022-12-07T05:08:25;7.10;;;4.10;;
56581;SDS011;42463;52.214;21.238;2022-12-07T05:10:50;7.10;;;4.10;;
56581;SDS011;42463;52.214;21.238;2022-12-07T05:13:15;6.00;;;4.00;;
56581;SDS011;42463;52.214;21.238;2022-12-07T05:15:42;6.70;;;4.20;;
56581;SDS011;42463;52.214;21.238;2022-12-07T05:18:06;6.70;;;4.10;;
56581;SDS011;42463;52.214;21.238;2022-12-07T05:20:32;5.90;;;3.50;;
56581;SDS011;42463;52.214;21.238;2022-12-07T05:23:03;6.10;;;3.60;;
56581;SDS011;42463;52.214;21.238;2022-12-07T05:25:28;5.00;;;3.30;;
56581;SDS011;42463;52.214;21.238;2022-12-07T05:27:53;6.20;;;4.10;;
56581;SDS011;42463;52.214;21.238;2022-12-07T05:30:19;6.50;;;4.20;;
56581;SDS011;42463;52.214;21.238;2022-12-07T05:32:44;5.00;;;3.50;;
56581;SDS011;42463;52.214;21.238;2022-12-07T05:35:09;6.40;;;3.80;;
56581;SDS011;42463;52.214;21.238;2022-12-07T05:37:35;6.00;;;4.00;;
56581;SDS011;42463;52.214;21.238;2022-12-07T05:40:00;6.90;;;4.50;;
56581;SDS011;42463;52.214;21.238;2022-12-07T05:42:25;7.50;;;4.40;;
56581;SDS011;42463;52.214;21.238;2022-12-07T05:44:50;7.50;;;4.40;;
56581;SDS011;42463;52.214;21.238;2022-12-07T05:47:16;5.90;;;4.10;;
56581;SDS011;42463;52.214;21.238;2022-12-07T05:49:42;7.30;;;4.20;;
56581;SDS011;42463;52.214;21.238;2022-12-07T05:52:07;7.30;;;4.90;;
56581;SDS011;42463;52.214;21.238;2022-12-07T05:54:33;4.80;;;3.80;;
56581;SDS011;42463;52.214;21.238;2022-12-07T05:56:58;9.00;;;4.40;;
56581;SDS011;42463;52.214;21.238;2022-12-07T05:59:24;5.00;;;3.90;;
56581;SDS011;42463;52.214;21.238;2022-12-07T06:01:57;6.00;;;4.50;;
56581;SDS011;42463;52.214;21.238;2022-12-07T06:04:24;7.30;;;4.90;;
56581;SDS011;42463;52.214;21.238;2022-12-07T06:06:54;7.10;;;5.10;;
56581;SDS011;42463;52.214;21.238;2022-12-07T06:09:20;8.50;;;5.40;;
56581;SDS011;42463;52.214;21.238;2022-12-07T06:11:46;27.70;;;6.60;;
56581;SDS011;42463;52.214;21.238;2022-12-07T06:14:29;25.20;;;6.50;;
56581;SDS011;42463;52.214;21.238;2022-12-07T06:16:57;9.40;;;5.80;;
56581;SDS011;42463;52.214;21.238;2022-12-07T06:19:23;9.80;;;5.60;;
56581;SDS011;42463;52.214;21.238;2022-12-07T06:21:51;10.40;;;5.70;;
56581;SDS011;42463;52.214;21.238;2022-12-07T06:24:19;15.30;;;6.00;;
56581;SDS011;42463;52.214;21.238;2022-12-07T06:26:44;9.40;;;5.80;;
56581;SDS011;42463;52.214;21.238;2022-12-07T06:29:10;13.20;;;5.70;;
56581;SDS011;42463;52.214;21.238;2022-12-07T06:31:38;10.10;;;5.70;;
56581;SDS011;42463;52.214;21.238;2022-12-07T06:34:06;8.90;;;6.10;;
56581;SDS011;42463;52.214;21.238;2022-12-07T06:36:39;6.90;;;4.90;;
56581;SDS011;42463;52.214;21.238;2022-12-07T06:43:39;9.20;;;5.90;;
56581;SDS011;42463;52.214;21.238;2022-12-07T06:46:05;8.40;;;6.00;;
56581;SDS011;42463;52.214;21.238;2022-12-07T06:48:31;7.90;;;5.60;;
56581;SDS011;42463;52.214;21.238;2022-12-07T06:51:04;12.00;;;7.10;;
56581;SDS011;42463;52.214;21.238;2022-12-07T06:53:31;9.10;;;5.70;;
56581;SDS011;42463;52.214;21.238;2022-12-07T06:56:00;10.40;;;6.30;;
56581;SDS011;42463;52.214;21.238;2022-12-07T06:58:27;9.30;;;6.00;;
56581;SDS011;42463;52.214;21.238;2022-12-07T07:00:53;8.10;;;5.00;;
56581;SDS011;42463;52.214;21.238;2022-12-07T07:03:25;10.10;;;6.00;;
56581;SDS011;42463;52.214;21.238;2022-12-07T07:05:55;10.20;;;5.50;;
56581;SDS011;42463;52.214;21.238;2022-12-07T07:08:22;9.00;;;5.90;;
56581;SDS011;42463;52.214;21.238;2022-12-07T07:10:49;11.40;;;6.30;;
56581;SDS011;42463;52.214;21.238;2022-12-07T07:13:15;9.20;;;5.30;;
56581;SDS011;42463;52.214;21.238;2022-12-07T07:15:44;10.90;;;6.30;;
56581;SDS011;42463;52.214;21.238;2022-12-07T07:18:11;9.50;;;6.10;;
56581;SDS011;42463;52.214;21.238;2022-12-07T07:20:38;10.00;;;6.10;;
56581;SDS011;42463;52.214;21.238;2022-12-07T07:23:04;9.00;;;5.50;;
56581;SDS011;42463;52.214;21.238;2022-12-07T07:25:31;9.70;;;5.90;;
56581;SDS011;42463;52.214;21.238;2022-12-07T07:27:56;9.30;;;5.90;;
56581;SDS011;42463;52.214;21.238;2022-12-07T07:30:25;8.40;;;5.40;;
56581;SDS011;42463;52.214;21.238;2022-12-07T07:32:50;10.30;;;5.40;;
56581;SDS011;42463;52.214;21.238;2022-12-07T07:35:19;8.70;;;5.60;;
56581;SDS011;42463;52.214;21.238;2022-12-07T07:37:46;8.20;;;5.10;;
56581;SDS011;42463;52.214;21.238;2022-12-07T07:40:11;9.80;;;5.90;;
56581;SDS011;42463;52.214;21.238;2022-12-07T07:42:38;10.20;;;5.60;;
56581;SDS011;42463;52.214;21.238;2022-12-07T07:45:04;8.30;;;5.00;;
56581;SDS011;42463;52.214;21.238;2022-12-07T07:47:30;9.60;;;5.70;;
56581;SDS011;42463;52.214;21.238;2022-12-07T07:49:55;9.20;;;5.70;;
56581;SDS011;42463;52.214;21.238;2022-12-07T07:52:21;9.40;;;5.50;;
56581;SDS011;42463;52.214;21.238;2022-12-07T07:54:46;8.90;;;5.90;;
56581;SDS011;42463;52.214;21.238;2022-12-07T07:57:13;8.80;;;5.50;;
56581;SDS011;42463;52.214;21.238;2022-12-07T07:59:40;9.90;;;5.90;;
56581;SDS011;42463;52.214;21.238;2022-12-07T08:02:05;8.70;;;4.90;;
56581;SDS011;42463;52.214;21.238;2022-12-07T08:04:33;8.60;;;5.70;;
56581;SDS011;42463;52.214;21.238;2022-12-07T08:06:59;8.80;;;5.80;;
56581;SDS011;42463;52.214;21.238;2022-12-07T08:09:27;13.20;;;6.30;;
56581;SDS011;42463;52.214;21.238;2022-12-07T08:11:52;11.40;;;5.70;;
56581;SDS011;42463;52.214;21.238;2022-12-07T08:14:19;9.40;;;5.10;;
56581;SDS011;42463;52.214;21.238;2022-12-07T08:16:49;9.50;;;5.70;;
56581;SDS011;42463;52.214;21.238;2022-12-07T08:19:15;9.70;;;5.60;;
56581;SDS011;42463;52.214;21.238;2022-12-07T08:21:41;10.00;;;6.20;;
56581;SDS011;42463;52.214;21.238;2022-12-07T08:24:06;10.00;;;5.90;;
56581;SDS011;42463;52.214;21.238;2022-12-07T08:26:32;8.70;;;4.90;;
56581;SDS011;42463;52.214;21.238;2022-12-07T08:29:00;8.80;;;5.10;;
56581;SDS011;42463;52.214;21.238;2022-12-07T08:31:30;12.10;;;6.10;;
56581;SDS011;42463;52.214;21.238;2022-12-07T08:33:57;10.70;;;6.20;;
56581;SDS011;42463;52.214;21.238;2022-12-07T08:36:48;9.50;;;6.20;;
56581;SDS011;42463;52.214;21.238;2022-12-07T08:39:15;9.80;;;6.10;;
56581;SDS011;42463;52.214;21.238;2022-12-07T08:41:43;11.90;;;7.00;;
56581;SDS011;42463;52.214;21.238;2022-12-07T08:44:15;12.40;;;7.30;;
56581;SDS011;42463;52.214;21.238;2022-12-07T08:46:44;12.10;;;7.20;;
56581;SDS011;42463;52.214;21.238;2022-12-07T08:51:47;12.20;;;7.50;;
56581;SDS011;42463;52.214;21.238;2022-12-07T08:54:20;14.80;;;8.40;;
56581;SDS011;42463;52.214;21.238;2022-12-07T08:56:51;11.00;;;7.00;;
56581;SDS011;42463;52.214;21.238;2022-12-07T08:59:24;18.30;;;9.40;;
56581;SDS011;42463;52.214;21.238;2022-12-07T09:02:08;15.10;;;8.10;;
56581;SDS011;42463;52.214;21.238;2022-12-07T09:04:48;13.70;;;8.10;;
56581;SDS011;42463;52.214;21.238;2022-12-07T09:07:46;11.60;;;6.80;;
56581;SDS011;42463;52.214;21.238;2022-12-07T09:10:55;14.70;;;7.30;;
56581;SDS011;42463;52.214;21.238;2022-12-07T09:13:21;14.80;;;7.70;;
56581;SDS011;42463;52.214;21.238;2022-12-07T09:15:46;13.90;;;8.10;;
56581;SDS011;42463;52.214;21.238;2022-12-07T09:18:12;14.20;;;8.70;;
56581;SDS011;42463;52.214;21.238;2022-12-07T09:20:37;17.10;;;8.80;;
56581;SDS011;42463;52.214;21.238;2022-12-07T09:23:06;15.20;;;8.10;;
56581;SDS011;42463;52.214;21.238;2022-12-07T09:25:32;14.70;;;8.20;;
56581;SDS011;42463;52.214;21.238;2022-12-07T09:27:58;13.20;;;6.80;;
56581;SDS011;42463;52.214;21.238;2022-12-07T09:30:23;15.90;;;8.50;;
56581;SDS011;42463;52.214;21.238;2022-12-07T09:32:48;17.10;;;8.70;;
56581;SDS011;42463;52.214;21.238;2022-12-07T09:35:27;17.80;;;8.20;;
56581;SDS011;42463;52.214;21.238;2022-12-07T09:37:53;19.00;;;9.20;;
56581;SDS011;42463;52.214;21.238;2022-12-07T09:40:20;16.20;;;9.10;;
56581;SDS011;42463;52.214;21.238;2022-12-07T09:42:48;20.40;;;9.70;;
56581;SDS011;42463;52.214;21.238;2022-12-07T09:45:18;18.00;;;9.60;;
56581;SDS011;42463;52.214;21.238;2022-12-07T09:47:47;16.10;;;8.80;;
56581;SDS011;42463;52.214;21.238;2022-12-07T09:50:14;16.20;;;9.80;;
56581;SDS011;42463;52.214;21.238;2022-12-07T09:52:43;16.20;;;9.60;;
56581;SDS011;42463;52.214;21.238;2022-12-07T09:55:11;16.10;;;9.50;;
56581;SDS011;42463;52.214;21.238;2022-12-07T09:57:39;16.90;;;9.50;;
56581;SDS011;42463;52.214;21.238;2022-12-07T10:00:06;16.70;;;9.80;;
56581;SDS011;42463;52.214;21.238;2022-12-07T10:02:37;16.70;;;8.70;;
56581;SDS011;42463;52.214;21.238;2022-12-07T10:05:07;18.90;;;9.00;;
56581;SDS011;42463;52.214;21.238;2022-12-07T10:07:36;17.30;;;8.30;;
56581;SDS011;42463;52.214;21.238;2022-12-07T10:10:03;18.00;;;8.80;;
56581;SDS011;42463;52.214;21.238;2022-12-07T10:12:43;18.60;;;8.60;;
56581;SDS011;42463;52.214;21.238;2022-12-07T10:15:18;16.80;;;8.80;;
56581;SDS011;42463;52.214;21.238;2022-12-07T10:17:47;18.50;;;9.00;;
56581;SDS011;42463;52.214;21.238;2022-12-07T10:20:18;16.90;;;8.20;;
56581;SDS011;42463;52.214;21.238;2022-12-07T10:22:57;28.00;;;12.70;;
56581;SDS011;42463;52.214;21.238;2022-12-07T10:25:28;57.70;;;25.00;;
56581;SDS011;42463;52.214;21.238;2022-12-07T10:27:58;23.70;;;13.00;;
56581;SDS011;42463;52.214;21.238;2022-12-07T10:30:34;9.00;;;15.40;;
56581;SDS011;42463;52.214;21.238;2022-12-07T10:33:16;19.30;;;8.10;;
56581;SDS011;42463;52.214;21.238;2022-12-07T10:35:56;19.60;;;7.80;;
56581;SDS011;42463;52.214;21.238;2022-12-07T10:38:22;15.70;;;7.60;;
56581;SDS011;42463;52.214;21.238;2022-12-07T10:40:52;14.80;;;8.00;;
56581;SDS011;42463;52.214;21.238;2022-12-07T10:43:29;18.10;;;9.10;;
56581;SDS011;42463;52.214;21.238;2022-12-07T10:46:04;18.50;;;8.80;;
56581;SDS011;42463;52.214;21.238;2022-12-07T10:48:47;18.80;;;8.50;;
56581;SDS011;42463;52.214;21.238;2022-12-07T10:51:22;18.20;;;8.00;;
56581;SDS011;42463;52.214;21.238;2022-12-07T10:53:59;15.50;;;7.90;;
56581;SDS011;42463;52.214;21.238;2022-12-07T10:56:38;17.40;;;8.20;;
56581;SDS011;42463;52.214;21.238;2022-12-07T10:59:20;22.60;;;8.80;;
56581;SDS011;42463;52.214;21.238;2022-12-07T11:01:54;16.90;;;8.00;;
56581;SDS011;42463;52.214;21.238;2022-12-07T11:04:31;15.60;;;8.10;;
56581;SDS011;42463;52.214;21.238;2022-12-07T11:07:04;12.30;;;6.90;;
56581;SDS011;42463;52.214;21.238;2022-12-07T11:09:38;17.30;;;7.80;;
56581;SDS011;42463;52.214;21.238;2022-12-07T11:12:16;14.50;;;7.90;;
56581;SDS011;42463;52.214;21.238;2022-12-07T11:14:53;13.50;;;7.00;;
56581;SDS011;42463;52.214;21.238;2022-12-07T11:17:26;14.00;;;6.70;;
56581;SDS011;42463;52.214;21.238;2022-12-07T11:20:03;15.90;;;7.30;;
56581;SDS011;42463;52.214;21.238;2022-12-07T11:22:40;17.30;;;6.70;;
56581;SDS011;42463;52.214;21.238;2022-12-07T11:25:20;14.30;;;7.70;;
56581;SDS011;42463;52.214;21.238;2022-12-07T11:27:57;12.90;;;7.70;;
56581;SDS011;42463;52.214;21.238;2022-12-07T11:30:37;16.20;;;8.60;;
56581;SDS011;42463;52.214;21.238;2022-12-07T11:33:10;17.60;;;8.20;;
56581;SDS011;42463;52.214;21.238;2022-12-07T11:35:45;13.30;;;6.60;;
56581;SDS011;42463;52.214;21.238;2022-12-07T11:38:20;15.80;;;9.00;;
56581;SDS011;42463;52.214;21.238;2022-12-07T11:40:49;14.80;;;7.50;;
56581;SDS011;42463;52.214;21.238;2022-12-07T11:45:59;12.90;;;7.40;;
56581;SDS011;42463;52.214;21.238;2022-12-07T11:48:30;14.60;;;7.90;;
56581;SDS011;42463;52.214;21.238;2022-12-07T11:51:00;13.30;;;7.80;;
56581;SDS011;42463;52.214;21.238;2022-12-07T11:53:32;12.70;;;7.30;;
56581;SDS011;42463;52.214;21.238;2022-12-07T11:56:02;13.00;;;7.20;;
56581;SDS011;42463;52.214;21.238;2022-12-07T11:58:38;16.20;;;7.20;;
56581;SDS011;42463;52.214;21.238;2022-12-07T12:01:11;12.20;;;7.20;;
56581;SDS011;42463;52.214;21.238;2022-12-07T12:03:45;14.70;;;7.90;;
56581;SDS011;42463;52.214;21.238;2022-12-07T12:06:12;14.70;;;7.40;;
56581;SDS011;42463;52.214;21.238;2022-12-07T12:08:38;12.00;;;7.40;;
56581;SDS011;42463;52.214;21.238;2022-12-07T12:11:08;15.00;;;7.10;;
56581;SDS011;42463;52.214;21.238;2022-12-07T12:14:08;14.50;;;7.20;;
56581;SDS011;42463;52.214;21.238;2022-12-07T12:19:59;9.60;;;5.40;;
56581;SDS011;42463;52.214;21.238;2022-12-07T12:22:29;12.30;;;7.20;;
56581;SDS011;42463;52.214;21.238;2022-12-07T12:25:00;14.90;;;8.10;;
56581;SDS011;42463;52.214;21.238;2022-12-07T12:27:30;13.40;;;7.60;;
56581;SDS011;42463;52.214;21.238;2022-12-07T12:30:00;12.00;;;6.70;;
56581;SDS011;42463;52.214;21.238;2022-12-07T12:32:31;12.00;;;7.10;;
56581;SDS011;42463;52.214;21.238;2022-12-07T12:35:17;13.00;;;7.00;;
56581;SDS011;42463;52.214;21.238;2022-12-07T12:37:50;13.60;;;7.20;;
56581;SDS011;42463;52.214;21.238;2022-12-07T12:43:27;13.40;;;7.70;;
56581;SDS011;42463;52.214;21.238;2022-12-07T12:49:30;14.20;;;7.60;;
56581;SDS011;42463;52.214;21.238;2022-12-07T12:52:01;14.10;;;7.60;;
56581;SDS011;42463;52.214;21.238;2022-12-07T12:55:14;13.80;;;7.60;;
56581;SDS011;42463;52.214;21.238;2022-12-07T12:57:43;14.40;;;8.10;;
56581;SDS011;42463;52.214;21.238;2022-12-07T13:00:15;13.60;;;7.70;;
56581;SDS011;42463;52.214;21.238;2022-12-07T13:02:46;12.80;;;7.50;;
56581;SDS011;42463;52.214;21.238;2022-12-07T13:05:18;13.10;;;7.70;;
56581;SDS011;42463;52.214;21.238;2022-12-07T13:07:52;12.50;;;7.30;;
56581;SDS011;42463;52.214;21.238;2022-12-07T13:10:22;13.40;;;7.20;;
56581;SDS011;42463;52.214;21.238;2022-12-07T13:12:56;11.60;;;6.70;;
56581;SDS011;42463;52.214;21.238;2022-12-07T13:15:32;14.40;;;7.00;;
56581;SDS011;42463;52.214;21.238;2022-12-07T13:18:00;14.00;;;7.70;;
56581;SDS011;42463;52.214;21.238;2022-12-07T13:26:18;14.50;;;7.90;;
56581;SDS011;42463;52.214;21.238;2022-12-07T13:28:46;14.50;;;7.00;;
56581;SDS011;42463;52.214;21.238;2022-12-07T13:31:18;12.70;;;7.90;;
56581;SDS011;42463;52.214;21.238;2022-12-07T13:33:55;12.10;;;7.70;;
56581;SDS011;42463;52.214;21.238;2022-12-07T13:36:22;14.20;;;7.90;;
56581;SDS011;42463;52.214;21.238;2022-12-07T13:42:14;10.50;;;7.10;;
56581;SDS011;42463;52.214;21.238;2022-12-07T13:44:50;12.40;;;7.30;;
56581;SDS011;42463;52.214;21.238;2022-12-07T13:47:16;10.20;;;6.60;;
56581;SDS011;42463;52.214;21.238;2022-12-07T13:49:47;10.70;;;6.30;;
56581;SDS011;42463;52.214;21.238;2022-12-07T13:52:15;8.80;;;5.80;;
56581;SDS011;42463;52.214;21.238;2022-12-07T13:54:44;12.90;;;7.20;;
56581;SDS011;42463;52.214;21.238;2022-12-07T13:57:10;10.60;;;7.10;;
56581;SDS011;42463;52.214;21.238;2022-12-07T13:59:35;10.10;;;6.80;;
56581;SDS011;42463;52.214;21.238;2022-12-07T14:02:01;12.20;;;6.60;;
56581;SDS011;42463;52.214;21.238;2022-12-07T14:04:31;12.50;;;6.50;;
56581;SDS011;42463;52.214;21.238;2022-12-07T14:06:56;10.30;;;6.30;;
56581;SDS011;42463;52.214;21.238;2022-12-07T14:09:23;8.20;;;6.10;;
56581;SDS011;42463;52.214;21.238;2022-12-07T14:11:50;10.00;;;6.50;;
56581;SDS011;42463;52.214;21.238;2022-12-07T14:14:16;11.30;;;7.00;;
56581;SDS011;42463;52.214;21.238;2022-12-07T14:16:43;10.20;;;6.20;;
56581;SDS011;42463;52.214;21.238;2022-12-07T14:22:08;10.60;;;6.20;;
56581;SDS011;42463;52.214;21.238;2022-12-07T14:24:42;9.90;;;6.50;;
56581;SDS011;42463;52.214;21.238;2022-12-07T14:27:15;8.80;;;5.80;;
56581;SDS011;42463;52.214;21.238;2022-12-07T14:29:41;8.50;;;5.60;;
56581;SDS011;42463;52.214;21.238;2022-12-07T14:32:15;9.40;;;6.10;;
56581;SDS011;42463;52.214;21.238;2022-12-07T14:34:57;10.00;;;7.10;;
56581;SDS011;42463;52.214;21.238;2022-12-07T14:37:31;8.70;;;6.10;;
56581;SDS011;42463;52.214;21.238;2022-12-07T14:39:56;9.00;;;5.60;;
56581;SDS011;42463;52.214;21.238;2022-12-07T14:42:21;11.30;;;7.20;;
56581;SDS011;42463;52.214;21.238;2022-12-07T14:44:50;11.30;;;6.70;;
56581;SDS011;42463;52.214;21.238;2022-12-07T14:47:14;10.70;;;6.50;;
56581;SDS011;42463;52.214;21.238;2022-12-07T14:49:39;9.50;;;6.30;;
56581;SDS011;42463;52.214;21.238;2022-12-07T14:52:03;10.90;;;6.70;;
56581;SDS011;42463;52.214;21.238;2022-12-07T14:54:34;10.10;;;6.70;;
56581;SDS011;42463;52.214;21.238;2022-12-07T14:57:00;13.60;;;8.10;;
56581;SDS011;42463;52.214;21.238;2022-12-07T14:59:25;12.80;;;8.00;;
56581;SDS011;42463;52.214;21.238;2022-12-07T15:01:50;11.70;;;7.70;;
56581;SDS011;42463;52.214;21.238;2022-12-07T15:04:14;12.30;;;7.50;;
56581;SDS011;42463;52.214;21.238;2022-12-07T15:06:39;12.90;;;7.50;;
56581;SDS011;42463;52.214;21.238;2022-12-07T15:09:05;10.90;;;6.80;;
56581;SDS011;42463;52.214;21.238;2022-12-07T15:11:31;13.40;;;8.20;;